Dover Highway — 7JKA — position and weather

sailwx.info

Track history (hours):
 
Tides and Currents Weather Stations Pressure Air Temp Water Temp Dewpoint Dewpoint Depression Visibility Wind Speed Wind Dir Waves Ship Positions

Dover Highway

Last reported at 2017-Sep-16 13:23 UTC. Time now 2017-Sep-21 12:19 UTC.
Position N 32°23' W 079°37'.

Length 199 m; draft 8.5 m.

Type: Cargo ship. MMSI: 432824000.

Date/timePositionNaut miles runAvg speedWind from/ knotsBaromVisibWave heightAir tempDewpointWater temp
2017-Sep-16 13:23N 32°23' W 079°37'615.5
2017-Sep-16 13:00N 32°19' W 079°42'816.2
2017-Sep-16 12:30N 32°13' W 079°48'816.2
2017-Sep-16 12:00N 32°07' W 079°54'816.3
2017-Sep-16 11:30N 32°00' W 079°60'816.4
2017-Sep-16 11:00N 31°54' W 080°06'816.5
2017-Sep-16 10:30N 31°47' W 080°11'816.7
2017-Sep-16 10:00N 31°40' W 080°17'816.7
2017-Sep-16 09:30N 31°33' W 080°23'816.7
2017-Sep-16 09:00N 31°27' W 080°28'816.7
2017-Sep-16 08:30N 31°20' W 080°34'816.7
2017-Sep-16 08:00N 31°13' W 080°40'816.6
2017-Sep-16 07:30N 31°07' W 080°46'715.0
2017-Sep-16 07:00N 31°04' W 080°54'816.0
2017-Sep-16 06:29N 31°03' W 081°04'815.2
2017-Sep-16 05:59N 31°02' W 081°12'4 8.7
2017-Sep-16 05:29N 31°04' W 081°17'510.2
2017-Sep-16 05:00N 31°07' W 081°21'6 8.7
2017-Sep-16 04:19N 31°07' W 081°28'3 8.9
2017-Sep-16 04:00N 31°08' W 081°31'0 0.9
2017-Sep-16 03:30N 31°08' W 081°32'0 0.0
2017-Sep-16 03:00N 31°08' W 081°32'0 0.0
2017-Sep-16 02:30N 31°08' W 081°32'0 0.0
2017-Sep-16 01:48N 31°08' W 081°32'0 0.0
2017-Sep-16 01:30N 31°08' W 081°32'0 0.0
2017-Sep-16 00:24N 31°08' W 081°32'0 0.0
2017-Sep-16 00:00N 31°08' W 081°32'42 2.5
2017-Sep-15 07:17N 30°42' W 080°54'0 0.9
2017-Sep-15 07:00N 30°42' W 080°54'1 1.0
2017-Sep-15 06:22N 30°41' W 080°53'0 1.1
2017-Sep-15 06:00N 30°41' W 080°53'5 0.8
2017-Sep-15 00:27N 30°41' W 080°47'0 0.2
2017-Sep-15 00:00N 30°41' W 080°47'0 0.2
2017-Sep-14 23:09N 30°40' W 080°47'0 0.5
2017-Sep-14 22:25N 30°40' W 080°47'2 0.6
2017-Sep-14 19:45N 30°38' W 080°47'0 0.8
2017-Sep-14 19:15N 30°38' W 080°47'4 0.6
2017-Sep-14 13:06N 30°37' W 080°43'8 1.1
2017-Sep-14 05:19N 30°31' W 080°36'1 1.7
2017-Sep-14 05:00N 30°31' W 080°36'1 1.6
2017-Sep-14 04:26N 30°30' W 080°35'1 1.6
2017-Sep-14 04:00N 30°30' W 080°34'1 1.7
2017-Sep-14 03:29N 30°30' W 080°33'1 1.4
2017-Sep-14 03:00N 30°30' W 080°32'1 1.2
2017-Sep-14 02:30N 30°29' W 080°31'1 0.9
2017-Sep-14 01:05N 30°29' W 080°30'0 1.1
2017-Sep-14 01:00N 30°29' W 080°30'1 1.0
2017-Sep-14 00:21N 30°29' W 080°29'112 7.0
2017-Sep-13 08:21N 32°02' W 079°16'32313.9
2017-Sep-12 09:03N 36°25' W 075°29'2615.4
2017-Sep-12 07:22N 36°48' W 075°46'615.2
2017-Sep-12 06:58N 36°51' W 075°52'614.2
2017-Sep-12 06:31N 36°56' W 075°58'4 7.5
2017-Sep-12 06:01N 36°59' W 076°00'611.1
2017-Sep-12 05:30N 37°03' W 076°05'2014.5
2017-Sep-12 04:09N 37°23' W 076°05'216.3
2017-Sep-12 04:00N 37°25' W 076°05'916.0
2017-Sep-12 03:28N 37°33' W 076°03'916.4
2017-Sep-12 02:57N 37°40' W 076°09'715.5
2017-Sep-12 02:29N 37°47' W 076°11'816.0
2017-Sep-12 01:57N 37°56' W 076°11'716.3
2017-Sep-12 01:30N 38°03' W 076°13'816.1
2017-Sep-12 01:00N 38°11' W 076°14'815.9
2017-Sep-12 00:28N 38°19' W 076°18'715.8
2017-Sep-12 00:00N 38°26' W 076°21'815.8
2017-Sep-11 23:30N 38°33' W 076°26'815.7
2017-Sep-11 23:00N 38°41' W 076°25'815.9
2017-Sep-11 22:30N 38°48' W 076°25'816.5
2017-Sep-11 22:01N 38°57' W 076°23'713.9
2017-Sep-11 21:30N 39°04' W 076°23'612.5
2017-Sep-11 21:00N 39°10' W 076°25'510.9
2017-Sep-11 20:30N 39°13' W 076°31'3 5.0
2017-Sep-11 20:01N 39°15' W 076°32'0 0.8
2017-Sep-11 19:29N 39°15' W 076°32'0 0.0
2017-Sep-11 18:59N 39°15' W 076°32'0 0.0
2017-Sep-11 18:29N 39°15' W 076°32'0 0.0
2017-Sep-11 17:59N 39°15' W 076°32'0 0.0
2017-Sep-11 17:29N 39°15' W 076°32'0 0.0
2017-Sep-11 16:59N 39°15' W 076°32'0 0.0
2017-Sep-11 16:29N 39°15' W 076°32'0 0.0
2017-Sep-11 15:59N 39°15' W 076°32'0 0.0
2017-Sep-11 15:29N 39°15' W 076°32'0 0.0
2017-Sep-11 14:59N 39°15' W 076°32'0 0.0
2017-Sep-11 14:29N 39°15' W 076°32'0 0.0
2017-Sep-11 13:59N 39°15' W 076°32'0 0.0
2017-Sep-11 13:26N 39°15' W 076°32'0 0.0
2017-Sep-11 12:59N 39°15' W 076°32'0 0.0
2017-Sep-11 12:29N 39°15' W 076°32'0 0.0
2017-Sep-11 11:59N 39°15' W 076°32'0 0.0
2017-Sep-11 11:29N 39°15' W 076°32'0 0.0
2017-Sep-11 10:59N 39°15' W 076°32'0 0.0
2017-Sep-11 10:29N 39°15' W 076°32'0 0.0
2017-Sep-11 09:59N 39°15' W 076°32'0 0.0
2017-Sep-11 09:29N 39°15' W 076°32'0 0.0
2017-Sep-11 08:59N 39°15' W 076°32'0 0.0
2017-Sep-11 08:29N 39°15' W 076°32'0 0.0
2017-Sep-11 07:59N 39°15' W 076°32'0 0.0
2017-Sep-11 07:29N 39°15' W 076°32'0 0.0
2017-Sep-11 06:59N 39°15' W 076°32'0 0.0
2017-Sep-11 06:29N 39°15' W 076°32'0 0.0
2017-Sep-11 05:59N 39°15' W 076°32'0 0.0
2017-Sep-11 05:29N 39°15' W 076°32'0 0.0
2017-Sep-11 04:59N 39°15' W 076°32'0 0.0
2017-Sep-11 04:29N 39°15' W 076°32'0 0.0
2017-Sep-11 03:59N 39°15' W 076°32'0 0.0
2017-Sep-11 03:29N 39°15' W 076°32'0 0.0
2017-Sep-11 02:59N 39°15' W 076°32'0 0.0
2017-Sep-11 02:29N 39°15' W 076°32'0 0.0
2017-Sep-11 01:59N 39°15' W 076°32'0 0.0
2017-Sep-11 01:29N 39°15' W 076°32'0 0.7
2017-Sep-11 01:00N 39°15' W 076°32'2 3.4
2017-Sep-11 00:31N 39°15' W 076°35'0 0.3
2017-Sep-10 23:59N 39°15' W 076°35'0 0.0
2017-Sep-10 23:30N 39°15' W 076°35'0 0.0
2017-Sep-10 22:59N 39°15' W 076°35'0 0.0
2017-Sep-10 22:29N 39°15' W 076°35'0 0.0
2017-Sep-10 21:59N 39°15' W 076°35'0 0.0
2017-Sep-10 21:29N 39°15' W 076°35'0 0.0
2017-Sep-10 20:59N 39°15' W 076°35'0 0.0
2017-Sep-10 20:29N 39°15' W 076°35'0 0.0
2017-Sep-10 19:59N 39°15' W 076°35'0 0.0
2017-Sep-10 19:26N 39°15' W 076°35'0 0.0
2017-Sep-10 18:59N 39°15' W 076°35'0 0.0
2017-Sep-10 18:29N 39°15' W 076°35'0 0.0
2017-Sep-10 18:00N 39°15' W 076°35'0 0.0
2017-Sep-10 17:29N 39°15' W 076°35'0 0.0
2017-Sep-10 16:59N 39°15' W 076°35'0 0.0
2017-Sep-10 16:29N 39°15' W 076°35'0 0.0
2017-Sep-10 15:59N 39°15' W 076°35'0 0.0
2017-Sep-10 15:29N 39°15' W 076°35'0 0.0
2017-Sep-10 14:59N 39°15' W 076°35'0 0.0
2017-Sep-10 13:59N 39°15' W 076°35'0 0.0
2017-Sep-10 13:29N 39°15' W 076°35'0 0.9
2017-Sep-10 13:00N 39°15' W 076°34'4 7.8
2017-Sep-10 12:30N 39°12' W 076°31'713.0
2017-Sep-10 12:00N 39°08' W 076°24'815.8
2017-Sep-10 11:30N 39°01' W 076°23'917.2
2017-Sep-10 11:01N 38°52' W 076°24'917.8
2017-Sep-10 10:30N 38°43' W 076°26'3417.7
2017-Sep-10 08:35N 38°10' W 076°14'217.8
2017-Sep-10 08:30N 38°09' W 076°14'1118.1
2017-Sep-10 07:55N 37°59' W 076°12'5017.0
2017-Sep-10 04:59N 37°09' W 076°09'918.0
2017-Sep-10 04:30N 37°01' W 076°03'714.0
2017-Sep-10 04:00N 36°56' W 075°57'4 7.9
2017-Sep-10 03:30N 36°54' W 075°53'  
Track history (hours):
 
Tides and Currents Weather Stations Pressure Air Temp Water Temp Dewpoint Dewpoint Depression Visibility Wind Speed Wind Dir Waves Ship Positions

Dover Highway

Last reported at 2017-Sep-16 13:23 UTC. Time now 2017-Sep-21 12:19 UTC.
Position N 32°23' W 079°37'.

Length 199 m; draft 8.5 m.

Type: Cargo ship. MMSI: 432824000.

Date/timePositionNaut miles runAvg speedWind from/ knotsBaromVisibWave heightAir tempDewpointWater temp
2017-Sep-16 13:23N 32°23' W 079°37'615.5
2017-Sep-16 13:00N 32°19' W 079°42'816.2
2017-Sep-16 12:30N 32°13' W 079°48'816.2
2017-Sep-16 12:00N 32°07' W 079°54'816.3
2017-Sep-16 11:30N 32°00' W 079°60'816.4
2017-Sep-16 11:00N 31°54' W 080°06'816.5
2017-Sep-16 10:30N 31°47' W 080°11'816.7
2017-Sep-16 10:00N 31°40' W 080°17'816.7
2017-Sep-16 09:30N 31°33' W 080°23'816.7
2017-Sep-16 09:00N 31°27' W 080°28'816.7
2017-Sep-16 08:30N 31°20' W 080°34'816.7
2017-Sep-16 08:00N 31°13' W 080°40'816.6
2017-Sep-16 07:30N 31°07' W 080°46'715.0
2017-Sep-16 07:00N 31°04' W 080°54'816.0
2017-Sep-16 06:29N 31°03' W 081°04'815.2
2017-Sep-16 05:59N 31°02' W 081°12'4 8.7
2017-Sep-16 05:29N 31°04' W 081°17'510.2
2017-Sep-16 05:00N 31°07' W 081°21'6 8.7
2017-Sep-16 04:19N 31°07' W 081°28'3 8.9
2017-Sep-16 04:00N 31°08' W 081°31'0 0.9
2017-Sep-16 03:30N 31°08' W 081°32'0 0.0
2017-Sep-16 03:00N 31°08' W 081°32'0 0.0
2017-Sep-16 02:30N 31°08' W 081°32'0 0.0
2017-Sep-16 01:48N 31°08' W 081°32'0 0.0
2017-Sep-16 01:30N 31°08' W 081°32'0 0.0
2017-Sep-16 00:24N 31°08' W 081°32'0 0.0
2017-Sep-16 00:00N 31°08' W 081°32'42 2.5
2017-Sep-15 07:17N 30°42' W 080°54'0 0.9
2017-Sep-15 07:00N 30°42' W 080°54'1 1.0
2017-Sep-15 06:22N 30°41' W 080°53'0 1.1
2017-Sep-15 06:00N 30°41' W 080°53'5 0.8
2017-Sep-15 00:27N 30°41' W 080°47'0 0.2
2017-Sep-15 00:00N 30°41' W 080°47'0 0.2
2017-Sep-14 23:09N 30°40' W 080°47'0 0.5
2017-Sep-14 22:25N 30°40' W 080°47'2 0.6
2017-Sep-14 19:45N 30°38' W 080°47'0 0.8
2017-Sep-14 19:15N 30°38' W 080°47'4 0.6
2017-Sep-14 13:06N 30°37' W 080°43'8 1.1
2017-Sep-14 05:19N 30°31' W 080°36'1 1.7
2017-Sep-14 05:00N 30°31' W 080°36'1 1.6
2017-Sep-14 04:26N 30°30' W 080°35'1 1.6
2017-Sep-14 04:00N 30°30' W 080°34'1 1.7
2017-Sep-14 03:29N 30°30' W 080°33'1 1.4
2017-Sep-14 03:00N 30°30' W 080°32'1 1.2
2017-Sep-14 02:30N 30°29' W 080°31'1 0.9
2017-Sep-14 01:05N 30°29' W 080°30'0 1.1
2017-Sep-14 01:00N 30°29' W 080°30'1 1.0
2017-Sep-14 00:21N 30°29' W 080°29'112 7.0
2017-Sep-13 08:21N 32°02' W 079°16'32313.9
2017-Sep-12 09:03N 36°25' W 075°29'2615.4
2017-Sep-12 07:22N 36°48' W 075°46'615.2
2017-Sep-12 06:58N 36°51' W 075°52'614.2
2017-Sep-12 06:31N 36°56' W 075°58'4 7.5
2017-Sep-12 06:01N 36°59' W 076°00'611.1
2017-Sep-12 05:30N 37°03' W 076°05'2014.5
2017-Sep-12 04:09N 37°23' W 076°05'216.3
2017-Sep-12 04:00N 37°25' W 076°05'916.0
2017-Sep-12 03:28N 37°33' W 076°03'916.4
2017-Sep-12 02:57N 37°40' W 076°09'715.5
2017-Sep-12 02:29N 37°47' W 076°11'816.0
2017-Sep-12 01:57N 37°56' W 076°11'716.3
2017-Sep-12 01:30N 38°03' W 076°13'816.1
2017-Sep-12 01:00N 38°11' W 076°14'815.9
2017-Sep-12 00:28N 38°19' W 076°18'715.8
2017-Sep-12 00:00N 38°26' W 076°21'815.8
2017-Sep-11 23:30N 38°33' W 076°26'815.7
2017-Sep-11 23:00N 38°41' W 076°25'815.9
2017-Sep-11 22:30N 38°48' W 076°25'816.5
2017-Sep-11 22:01N 38°57' W 076°23'713.9
2017-Sep-11 21:30N 39°04' W 076°23'612.5
2017-Sep-11 21:00N 39°10' W 076°25'510.9
2017-Sep-11 20:30N 39°13' W 076°31'3 5.0
2017-Sep-11 20:01N 39°15' W 076°32'0 0.8
2017-Sep-11 19:29N 39°15' W 076°32'0 0.0
2017-Sep-11 18:59N 39°15' W 076°32'0 0.0
2017-Sep-11 18:29N 39°15' W 076°32'0 0.0
2017-Sep-11 17:59N 39°15' W 076°32'0 0.0
2017-Sep-11 17:29N 39°15' W 076°32'0 0.0
2017-Sep-11 16:59N 39°15' W 076°32'0 0.0
2017-Sep-11 16:29N 39°15' W 076°32'0 0.0
2017-Sep-11 15:59N 39°15' W 076°32'0 0.0
2017-Sep-11 15:29N 39°15' W 076°32'0 0.0
2017-Sep-11 14:59N 39°15' W 076°32'0 0.0
2017-Sep-11 14:29N 39°15' W 076°32'0 0.0
2017-Sep-11 13:59N 39°15' W 076°32'0 0.0
2017-Sep-11 13:26N 39°15' W 076°32'0 0.0
2017-Sep-11 12:59N 39°15' W 076°32'0 0.0
2017-Sep-11 12:29N 39°15' W 076°32'0 0.0
2017-Sep-11 11:59N 39°15' W 076°32'0 0.0
2017-Sep-11 11:29N 39°15' W 076°32'0 0.0
2017-Sep-11 10:59N 39°15' W 076°32'0 0.0
2017-Sep-11 10:29N 39°15' W 076°32'0 0.0
2017-Sep-11 09:59N 39°15' W 076°32'0 0.0
2017-Sep-11 09:29N 39°15' W 076°32'0 0.0
2017-Sep-11 08:59N 39°15' W 076°32'0 0.0
2017-Sep-11 08:29N 39°15' W 076°32'0 0.0
2017-Sep-11 07:59N 39°15' W 076°32'0 0.0
2017-Sep-11 07:29N 39°15' W 076°32'0 0.0
2017-Sep-11 06:59N 39°15' W 076°32'0 0.0
2017-Sep-11 06:29N 39°15' W 076°32'0 0.0
2017-Sep-11 05:59N 39°15' W 076°32'0 0.0
2017-Sep-11 05:29N 39°15' W 076°32'0 0.0
2017-Sep-11 04:59N 39°15' W 076°32'0 0.0
2017-Sep-11 04:29N 39°15' W 076°32'0 0.0
2017-Sep-11 03:59N 39°15' W 076°32'0 0.0
2017-Sep-11 03:29N 39°15' W 076°32'0 0.0
2017-Sep-11 02:59N 39°15' W 076°32'0 0.0
2017-Sep-11 02:29N 39°15' W 076°32'0 0.0
2017-Sep-11 01:59N 39°15' W 076°32'0 0.0
2017-Sep-11 01:29N 39°15' W 076°32'0 0.7
2017-Sep-11 01:00N 39°15' W 076°32'2 3.4
2017-Sep-11 00:31N 39°15' W 076°35'0 0.3
2017-Sep-10 23:59N 39°15' W 076°35'0 0.0
2017-Sep-10 23:30N 39°15' W 076°35'0 0.0
2017-Sep-10 22:59N 39°15' W 076°35'0 0.0
2017-Sep-10 22:29N 39°15' W 076°35'0 0.0
2017-Sep-10 21:59N 39°15' W 076°35'0 0.0
2017-Sep-10 21:29N 39°15' W 076°35'0 0.0
2017-Sep-10 20:59N 39°15' W 076°35'0 0.0
2017-Sep-10 20:29N 39°15' W 076°35'0 0.0
2017-Sep-10 19:59N 39°15' W 076°35'0 0.0
2017-Sep-10 19:26N 39°15' W 076°35'0 0.0
2017-Sep-10 18:59N 39°15' W 076°35'0 0.0
2017-Sep-10 18:29N 39°15' W 076°35'0 0.0
2017-Sep-10 18:00N 39°15' W 076°35'0 0.0
2017-Sep-10 17:29N 39°15' W 076°35'0 0.0
2017-Sep-10 16:59N 39°15' W 076°35'0 0.0
2017-Sep-10 16:29N 39°15' W 076°35'0 0.0
2017-Sep-10 15:59N 39°15' W 076°35'0 0.0
2017-Sep-10 15:29N 39°15' W 076°35'0 0.0
2017-Sep-10 14:59N 39°15' W 076°35'0 0.0
2017-Sep-10 13:59N 39°15' W 076°35'0 0.0
2017-Sep-10 13:29N 39°15' W 076°35'0 0.9
2017-Sep-10 13:00N 39°15' W 076°34'4 7.8
2017-Sep-10 12:30N 39°12' W 076°31'713.0
2017-Sep-10 12:00N 39°08' W 076°24'815.8
2017-Sep-10 11:30N 39°01' W 076°23'917.2
2017-Sep-10 11:01N 38°52' W 076°24'917.8
2017-Sep-10 10:30N 38°43' W 076°26'3417.7
2017-Sep-10 08:35N 38°10' W 076°14'217.8
2017-Sep-10 08:30N 38°09' W 076°14'1118.1
2017-Sep-10 07:55N 37°59' W 076°12'5017.0
2017-Sep-10 04:59N 37°09' W 076°09'918.0
2017-Sep-10 04:30N 37°01' W 076°03'714.0
2017-Sep-10 04:00N 36°56' W 075°57'4 7.9
2017-Sep-10 03:30N 36°54' W 075°53'  

Dump ship's entire track history